createdAt,value
2022-08-26T00:00:08.863Z,97506.88
2022-08-26T00:03:00.909Z,97507.77
2022-08-26T00:05:29.214Z,97508.58
2022-08-26T00:07:57.610Z,97510.38
2022-08-26T00:10:25.984Z,97507.23
2022-08-26T00:12:55.168Z,97508.20
2022-08-26T00:15:24.934Z,97505.56
2022-08-26T00:17:53.935Z,97506.05
2022-08-26T00:20:25.943Z,97501.52
2022-08-26T00:22:55.259Z,97502.74
2022-08-26T00:25:24.098Z,97501.55
2022-08-26T00:27:52.850Z,97500.46
2022-08-26T00:30:26.580Z,97498.58
2022-08-26T00:32:55.903Z,97496.43
2022-08-26T00:35:24.990Z,97494.64
2022-08-26T00:37:57.306Z,97497.40
2022-08-26T00:40:33.182Z,97498.34
2022-08-26T00:43:02.572Z,97498.09
2022-08-26T00:45:48.772Z,97497.80
2022-08-26T00:48:21.441Z,97500.35
2022-08-26T00:51:01.883Z,97502.30
2022-08-26T00:53:34.444Z,97500.96
2022-08-26T00:56:31.806Z,97500.25
2022-08-26T00:59:06.294Z,97509.64
2022-08-26T01:01:34.834Z,97512.16
2022-08-26T01:04:03.426Z,97510.14
2022-08-26T01:06:32.016Z,97511.88
2022-08-26T01:09:00.499Z,97510.62
2022-08-26T01:11:28.596Z,97512.46
2022-08-26T01:14:00.534Z,97513.92
2022-08-26T01:16:30.902Z,97514.98
2022-08-26T01:19:06.856Z,97512.67
2022-08-26T01:21:43.922Z,97509.73
2022-08-26T01:24:13.978Z,97507.86
2022-08-26T01:26:44.863Z,97506.90
2022-08-26T01:29:19.221Z,97505.16
2022-08-26T01:31:55.491Z,97501.87
2022-08-26T01:34:25.426Z,97504.33
2022-08-26T01:37:07.117Z,97505.77
2022-08-26T01:39:36.881Z,97505.79
2022-08-26T01:42:10.407Z,97509.71
2022-08-26T01:44:46.488Z,97507.41
2022-08-26T01:47:17.962Z,97503.40
2022-08-26T01:49:50.810Z,97503.88
2022-08-26T01:52:24.016Z,97503.55
2022-08-26T01:54:57.705Z,97503.57
2022-08-26T01:57:26.530Z,97506.84
2022-08-26T01:59:58.562Z,97508.10
2022-08-26T02:02:27.303Z,97506.94
2022-08-26T02:05:02.192Z,97501.02
2022-08-26T02:07:31.950Z,97499.33
2022-08-26T02:10:01.310Z,97496.77
2022-08-26T02:12:31.143Z,97498.08
2022-08-26T02:15:02.262Z,97494.20
2022-08-26T02:17:40.009Z,97497.28
2022-08-26T02:20:13.352Z,97499.34
2022-08-26T02:22:45.195Z,97501.73
2022-08-26T02:25:29.510Z,97500.48
2022-08-26T02:27:57.848Z,97502.38
2022-08-26T02:30:29.621Z,97503.38
2022-08-26T02:33:04.005Z,97506.21
2022-08-26T02:35:34.044Z,97504.20
2022-08-26T02:38:11.090Z,97506.27
2022-08-26T02:40:41.435Z,97507.44
2022-08-26T02:43:12.452Z,97512.38
2022-08-26T02:45:41.408Z,97515.48
2022-08-26T02:48:15.479Z,97516.18
2022-08-26T02:50:44.539Z,97513.38
2022-08-26T02:53:13.554Z,97516.90
2022-08-26T02:55:42.375Z,97516.80
2022-08-26T02:58:11.503Z,97514.01
2022-08-26T03:00:53.245Z,97516.04
2022-08-26T03:03:23.601Z,97521.27
2022-08-26T03:05:53.270Z,97517.83
2022-08-26T03:08:22.436Z,97521.18
2022-08-26T03:10:51.039Z,97524.73
2022-08-26T03:13:19.256Z,97529.28
2022-08-26T03:15:47.676Z,97529.05
2022-08-26T03:18:16.449Z,97527.36
2022-08-26T03:20:45.620Z,97526.67
2022-08-26T03:23:13.717Z,97529.10
2022-08-26T03:25:42.409Z,97531.58
2022-08-26T03:28:10.785Z,97531.77
2022-08-26T03:30:44.873Z,97530.35
2022-08-26T03:33:14.709Z,97533.99
2022-08-26T03:35:45.237Z,97529.63
2022-08-26T03:38:13.729Z,97529.42
2022-08-26T03:40:43.782Z,97533.30
2022-08-26T03:43:12.753Z,97540.36
2022-08-26T03:45:41.672Z,97537.78
2022-08-26T03:48:11.590Z,97537.70
2022-08-26T03:50:40.711Z,97537.11
2022-08-26T03:53:13.233Z,97530.83
2022-08-26T03:55:42.417Z,97530.91
2022-08-26T03:58:11.576Z,97532.58
2022-08-26T04:00:39.984Z,97533.34
2022-08-26T04:03:09.950Z,97537.64
2022-08-26T04:05:38.697Z,97534.72
2022-08-26T04:08:06.964Z,97532.81
2022-08-26T04:10:38.520Z,97533.02
2022-08-26T04:13:06.627Z,97533.98
2022-08-26T04:15:35.049Z,97532.98
2022-08-26T04:18:03.287Z,97537.73
2022-08-26T04:20:32.223Z,97533.52
2022-08-26T04:23:00.286Z,97531.05
2022-08-26T04:25:28.359Z,97532.69
2022-08-26T04:27:56.908Z,97532.52
2022-08-26T04:30:25.736Z,97532.41
2022-08-26T04:32:54.623Z,97534.09
2022-08-26T04:35:25.662Z,97531.42
2022-08-26T04:37:54.514Z,97532.80
2022-08-26T04:40:23.938Z,97534.95
2022-08-26T04:42:54.591Z,97537.05
2022-08-26T04:45:23.481Z,97539.95
2022-08-26T04:47:59.256Z,97540.81
2022-08-26T04:50:27.444Z,97541.71
2022-08-26T04:52:55.763Z,97541.52
2022-08-26T04:55:38.184Z,97543.69
2022-08-26T04:58:10.436Z,97543.20
2022-08-26T05:00:38.945Z,97543.67
2022-08-26T05:03:07.672Z,97540.14
2022-08-26T05:05:41.305Z,97536.90
2022-08-26T05:08:11.420Z,97535.13
2022-08-26T05:10:46.216Z,97534.69
2022-08-26T05:13:18.207Z,97532.07
2022-08-26T05:15:49.440Z,97531.36
2022-08-26T05:18:21.339Z,97532.65
2022-08-26T05:20:54.881Z,97531.80
2022-08-26T05:23:24.667Z,97532.90
2022-08-26T05:25:59.234Z,97532.70
2022-08-26T05:28:29.987Z,97533.89
2022-08-26T05:30:58.268Z,97535.82
2022-08-26T05:33:26.400Z,97539.36
2022-08-26T05:35:55.164Z,97541.05
2022-08-26T05:38:23.441Z,97535.45
2022-08-26T05:40:53.213Z,97531.83
2022-08-26T05:43:21.395Z,97529.44
2022-08-26T05:45:50.630Z,97528.45
2022-08-26T05:48:22.846Z,97530.46
2022-08-26T05:50:53.426Z,97527.23
2022-08-26T05:53:23.915Z,97535.02
2022-08-26T05:55:56.994Z,97540.58
2022-08-26T05:58:27.358Z,97542.02
2022-08-26T06:01:01.743Z,97539.34
2022-08-26T06:03:34.233Z,97534.05
2022-08-26T06:06:33.077Z,97534.22
2022-08-26T06:09:05.067Z,97537.39
2022-08-26T06:11:34.012Z,97541.19
2022-08-26T06:14:06.594Z,97540.88
2022-08-26T06:16:38.722Z,97543.40
2022-08-26T06:19:11.633Z,97539.52
2022-08-26T06:21:42.217Z,97541.32
2022-08-26T06:24:32.607Z,97542.29
2022-08-26T06:27:04.806Z,97543.46
2022-08-26T06:29:36.192Z,97545.92
2022-08-26T06:32:06.868Z,97543.79
2022-08-26T06:34:34.902Z,97542.27
2022-08-26T06:37:03.802Z,97541.70
2022-08-26T06:39:32.125Z,97536.94
2022-08-26T06:42:02.636Z,97539.67
2022-08-26T06:44:34.754Z,97540.88
2022-08-26T06:47:02.813Z,97545.27
2022-08-26T06:49:30.917Z,97541.46
2022-08-26T06:51:59.062Z,97536.34
2022-08-26T06:54:31.628Z,97537.83
2022-08-26T06:57:01.207Z,97534.96
2022-08-26T06:59:31.273Z,97535.91
2022-08-26T07:02:00.034Z,97532.59
2022-08-26T07:04:29.058Z,97532.98
2022-08-26T07:06:57.055Z,97528.29
2022-08-26T07:09:28.361Z,97526.02
2022-08-26T07:11:56.857Z,97525.34
2022-08-26T07:14:26.442Z,97526.15
2022-08-26T07:16:55.110Z,97524.26
2022-08-26T07:19:30.545Z,97522.41
2022-08-26T07:22:03.629Z,97521.94
2022-08-26T07:24:37.386Z,97519.45
2022-08-26T07:27:08.554Z,97515.61
2022-08-26T07:29:39.542Z,97511.19
2022-08-26T07:32:09.988Z,97505.86
2022-08-26T07:34:38.993Z,97504.88
2022-08-26T07:37:08.743Z,97504.17
2022-08-26T07:39:37.370Z,97500.33
2022-08-26T07:42:07.382Z,97500.48
2022-08-26T07:44:37.812Z,97497.11
2022-08-26T07:47:10.251Z,97490.17
2022-08-26T07:49:55.884Z,97486.85
2022-08-26T07:52:27.316Z,97486.00
2022-08-26T07:55:01.136Z,97483.59
2022-08-26T07:57:30.491Z,97478.04
2022-08-26T07:59:59.281Z,97477.34
2022-08-26T08:02:29.367Z,97476.77
2022-08-26T08:04:59.883Z,97472.95
2022-08-26T08:07:45.062Z,97467.77
2022-08-26T08:10:20.984Z,97467.83
2022-08-26T08:12:50.726Z,97460.40
2022-08-26T08:15:22.806Z,97460.05
2022-08-26T08:17:51.678Z,97460.13
2022-08-26T08:20:21.378Z,97459.02
2022-08-26T08:22:52.949Z,97459.37
2022-08-26T08:25:23.070Z,97457.48
2022-08-26T08:27:51.034Z,97451.39
2022-08-26T08:30:23.128Z,97452.65
2022-08-26T08:32:52.709Z,97452.62
2022-08-26T08:35:23.012Z,97452.49
2022-08-26T08:37:54.629Z,97449.70
2022-08-26T08:40:26.217Z,97444.23
2022-08-26T08:43:04.094Z,97444.02
2022-08-26T08:45:38.448Z,97442.90
2022-08-26T08:48:28.130Z,97442.41
2022-08-26T08:51:14.122Z,97442.67
2022-08-26T08:53:46.027Z,97440.81
2022-08-26T08:56:26.745Z,97437.63
2022-08-26T08:59:20.538Z,97436.05
2022-08-26T09:01:55.664Z,97433.86
2022-08-26T09:04:23.747Z,97428.30
2022-08-26T09:09:46.174Z,97422.23
2022-08-26T09:12:21.515Z,97416.57
2022-08-26T09:15:20.649Z,97418.92
2022-08-26T09:18:31.831Z,97418.64
2022-08-26T09:21:09.494Z,97417.66
2022-08-26T09:23:41.795Z,97411.52
2022-08-26T09:26:40.025Z,97408.94
2022-08-26T09:29:42.765Z,97408.58
2022-08-26T09:32:24.153Z,97407.27
2022-08-26T09:35:06.259Z,97401.83
2022-08-26T09:40:20.328Z,97394.38
2022-08-26T09:43:05.580Z,97394.63
2022-08-26T09:45:36.297Z,97388.89
2022-08-26T09:48:05.016Z,97388.33
2022-08-26T09:50:37.298Z,97386.32
2022-08-26T09:53:09.711Z,97387.02
2022-08-26T09:55:47.706Z,97384.06
2022-08-26T09:58:37.976Z,97381.80
2022-08-26T10:01:09.144Z,97376.71
2022-08-26T10:03:39.818Z,97375.61
2022-08-26T10:06:24.383Z,97375.88
2022-08-26T10:08:56.326Z,97373.04
2022-08-26T10:11:43.054Z,97374.42
2022-08-26T10:14:48.856Z,97375.38
2022-08-26T10:17:36.511Z,97371.67
2022-08-26T10:20:27.529Z,97368.44
2022-08-26T10:23:23.402Z,97367.39
2022-08-26T10:26:20.936Z,97366.71
2022-08-26T10:29:01.566Z,97363.68
2022-08-26T10:31:40.980Z,97363.10
2022-08-26T10:34:12.587Z,97362.99
2022-08-26T10:37:13.662Z,97361.52
2022-08-26T10:39:51.867Z,97354.81
2022-08-26T10:42:39.027Z,97352.27
2022-08-26T10:45:19.866Z,97348.70
2022-08-26T10:48:00.306Z,97350.30
2022-08-26T10:50:36.238Z,97350.76
2022-08-26T10:53:51.427Z,97344.38
2022-08-26T10:56:41.524Z,97344.62
2022-08-26T10:59:22.616Z,97344.40
2022-08-26T11:02:07.215Z,97343.01
2022-08-26T11:04:56.865Z,97340.35
2022-08-26T11:07:39.369Z,97337.62
2022-08-26T11:10:09.172Z,97334.41
2022-08-26T11:12:37.264Z,97332.37
2022-08-26T11:15:07.000Z,97328.86
2022-08-26T11:17:47.096Z,97320.48
2022-08-26T11:20:30.323Z,97323.02
2022-08-26T11:23:13.348Z,97322.06
2022-08-26T11:25:57.057Z,97312.77
2022-08-26T11:28:37.240Z,97311.12
2022-08-26T11:31:10.204Z,97308.20
2022-08-26T11:33:44.258Z,97305.48
2022-08-26T11:36:37.766Z,97305.77
2022-08-26T11:39:19.395Z,97302.58
2022-08-26T11:41:52.609Z,97302.73
2022-08-26T11:44:25.271Z,97298.30
2022-08-26T11:47:00.956Z,97298.95
2022-08-26T11:49:33.298Z,97294.86
2022-08-26T11:52:12.140Z,97294.58
2022-08-26T11:54:40.184Z,97290.38
2022-08-26T11:57:12.594Z,97288.10
2022-08-26T11:59:42.451Z,97287.64
2022-08-26T12:02:17.958Z,97287.16
2022-08-26T12:04:49.784Z,97283.69
2022-08-26T12:07:24.394Z,97281.11
2022-08-26T12:10:02.256Z,97280.34
2022-08-26T12:12:35.171Z,97276.92
2022-08-26T12:15:15.287Z,97279.25
2022-08-26T12:17:45.127Z,97280.29
2022-08-26T12:20:48.992Z,97278.05
2022-08-26T12:23:28.110Z,97273.79
2022-08-26T12:26:10.525Z,97273.90
2022-08-26T12:28:47.999Z,97273.84
2022-08-26T12:31:30.073Z,97274.63
2022-08-26T12:34:01.256Z,97269.95
2022-08-26T12:36:54.808Z,97264.13
2022-08-26T12:39:35.684Z,97258.75
2022-08-26T12:42:08.014Z,97256.66
2022-08-26T12:44:58.596Z,97258.61
2022-08-26T12:47:39.048Z,97255.23
2022-08-26T12:50:22.719Z,97251.79
2022-08-26T12:53:11.643Z,97247.19
2022-08-26T12:55:47.672Z,97239.58
2022-08-26T12:58:15.563Z,97239.81
2022-08-26T13:00:49.431Z,97244.40
2022-08-26T13:03:38.726Z,97246.39
2022-08-26T13:06:15.966Z,97248.46
2022-08-26T13:09:12.238Z,97243.85
2022-08-26T13:11:40.233Z,97241.86
2022-08-26T13:14:23.633Z,97243.50
2022-08-26T13:16:53.553Z,97239.39
2022-08-26T13:19:24.165Z,97238.97
2022-08-26T13:22:00.687Z,97237.14
2022-08-26T13:24:41.992Z,97230.23
2022-08-26T13:27:15.129Z,97232.09
2022-08-26T13:29:43.446Z,97228.45
2022-08-26T13:32:11.703Z,97230.09
2022-08-26T13:34:40.387Z,97229.16
2022-08-26T13:37:08.320Z,97226.04
2022-08-26T13:39:36.945Z,97224.06
2022-08-26T13:42:05.235Z,97219.37
2022-08-26T13:44:33.677Z,97216.64
2022-08-26T13:47:01.749Z,97211.75
2022-08-26T13:49:29.782Z,97205.66
2022-08-26T13:51:57.756Z,97205.42
2022-08-26T13:54:26.580Z,97206.92
2022-08-26T13:56:54.572Z,97207.11
2022-08-26T13:59:22.620Z,97204.50
2022-08-26T14:01:50.796Z,97206.00
2022-08-26T14:04:23.331Z,97202.91
2022-08-26T14:06:55.772Z,97201.71
2022-08-26T14:09:23.817Z,97201.83
2022-08-26T14:11:54.431Z,97204.23
2022-08-26T14:14:23.138Z,97203.21
2022-08-26T14:16:58.909Z,97202.95
2022-08-26T14:19:30.359Z,97201.09
2022-08-26T14:22:01.136Z,97199.98
2022-08-26T14:24:29.962Z,97199.66
2022-08-26T14:26:58.862Z,97198.73
2022-08-26T14:29:27.027Z,97200.34
2022-08-26T14:31:56.632Z,97198.73
2022-08-26T14:34:25.530Z,97203.75
2022-08-26T14:36:53.620Z,97201.55
2022-08-26T14:39:22.414Z,97200.48
2022-08-26T14:41:54.987Z,97191.51
2022-08-26T14:44:31.505Z,97193.09
2022-08-26T14:47:01.837Z,97192.48
2022-08-26T14:49:31.780Z,97190.55
2022-08-26T14:52:00.460Z,97188.53
2022-08-26T14:54:29.761Z,97188.61
2022-08-26T14:57:01.932Z,97185.88
2022-08-26T14:59:32.972Z,97189.10
2022-08-26T15:02:01.428Z,97189.73
2022-08-26T15:04:29.680Z,97190.15
2022-08-26T15:06:59.845Z,97195.92
2022-08-26T15:09:30.498Z,97190.59
2022-08-26T15:11:59.266Z,97193.06
2022-08-26T15:14:32.706Z,97191.20
2022-08-26T15:17:01.352Z,97187.35
2022-08-26T15:19:29.731Z,97188.97
2022-08-26T15:21:57.906Z,97188.31
2022-08-26T15:24:28.876Z,97188.71
2022-08-26T15:26:57.733Z,97183.76
2022-08-26T15:29:26.013Z,97181.61
2022-08-26T15:31:55.312Z,97181.39
2022-08-26T15:34:26.764Z,97180.39
2022-08-26T15:36:55.445Z,97177.87
2022-08-26T15:39:24.155Z,97178.45
2022-08-26T15:41:52.412Z,97176.45
2022-08-26T15:44:20.711Z,97178.66
2022-08-26T15:46:50.266Z,97184.05
2022-08-26T15:49:18.846Z,97180.55
2022-08-26T15:51:51.540Z,97181.90
2022-08-26T15:54:22.186Z,97180.96
2022-08-26T15:56:52.435Z,97182.19
2022-08-26T15:59:22.572Z,97179.80
2022-08-26T16:01:52.478Z,97180.98
2022-08-26T16:04:21.232Z,97180.27
2022-08-26T16:06:51.667Z,97180.04
2022-08-26T16:09:27.104Z,97180.63
2022-08-26T16:11:59.066Z,97181.74
2022-08-26T16:14:27.348Z,97183.75
2022-08-26T16:16:56.753Z,97188.23
2022-08-26T16:19:25.126Z,97186.71
2022-08-26T16:21:53.509Z,97187.05
2022-08-26T16:24:27.167Z,97186.66
2022-08-26T16:26:58.455Z,97185.63
2022-08-26T16:29:27.196Z,97188.47
2022-08-26T16:31:55.517Z,97188.03
2022-08-26T16:34:24.516Z,97189.40
2022-08-26T16:36:53.509Z,97186.02
2022-08-26T16:39:21.831Z,97189.19
2022-08-26T16:41:50.469Z,97191.92
2022-08-26T16:44:19.357Z,97197.35
2022-08-26T16:46:47.686Z,97196.80
2022-08-26T16:49:15.833Z,97194.79
2022-08-26T16:51:43.861Z,97192.98
2022-08-26T16:54:12.058Z,97195.41
2022-08-26T16:56:40.443Z,97195.14
2022-08-26T16:59:11.707Z,97197.21
2022-08-26T17:01:40.126Z,97198.03
2022-08-26T17:04:08.856Z,97199.17
2022-08-26T17:06:37.159Z,97198.48
2022-08-26T17:09:05.923Z,97198.77
2022-08-26T17:11:34.644Z,97202.33
2022-08-26T17:14:03.044Z,97201.00
2022-08-26T17:16:31.817Z,97205.13
2022-08-26T17:19:01.071Z,97209.89
2022-08-26T17:21:29.344Z,97211.80
2022-08-26T17:23:57.626Z,97211.02
2022-08-26T17:26:27.432Z,97216.19
2022-08-26T17:28:56.026Z,97216.58
2022-08-26T17:31:24.242Z,97212.73
2022-08-26T17:33:54.262Z,97213.25
2022-08-26T17:36:27.993Z,97214.52
2022-08-26T17:38:58.135Z,97217.53
2022-08-26T17:41:26.862Z,97219.31
2022-08-26T17:43:54.958Z,97220.50
2022-08-26T17:46:24.047Z,97220.23
2022-08-26T17:48:52.574Z,97221.83
2022-08-26T17:51:21.027Z,97223.41
2022-08-26T17:53:50.539Z,97222.20
2022-08-26T17:56:24.186Z,97218.88
2022-08-26T17:59:03.463Z,97224.95
2022-08-26T18:01:33.070Z,97228.02
2022-08-26T18:04:01.777Z,97229.88
2022-08-26T18:06:30.933Z,97234.08
2022-08-26T18:09:00.908Z,97231.10
2022-08-26T18:11:30.337Z,97233.52
2022-08-26T18:13:59.987Z,97234.73
2022-08-26T18:16:32.085Z,97234.34
2022-08-26T18:19:00.671Z,97231.80
2022-08-26T18:21:28.940Z,97232.45
2022-08-26T18:23:57.377Z,97233.16
2022-08-26T18:26:32.767Z,97234.87
2022-08-26T18:29:02.064Z,97242.13
2022-08-26T18:31:31.269Z,97243.55
2022-08-26T18:34:01.381Z,97247.03
2022-08-26T18:36:34.063Z,97246.48
2022-08-26T18:39:04.497Z,97246.98
2022-08-26T18:41:38.620Z,97246.77
2022-08-26T18:44:09.474Z,97248.97
2022-08-26T18:46:39.971Z,97243.84
2022-08-26T18:49:08.761Z,97246.84
2022-08-26T18:51:38.166Z,97244.39
2022-08-26T18:54:07.954Z,97248.80
2022-08-26T18:56:37.583Z,97248.92
2022-08-26T18:59:07.776Z,97250.30
2022-08-26T19:01:37.433Z,97254.39
2022-08-26T19:04:07.244Z,97248.63
2022-08-26T19:06:36.423Z,97248.73
2022-08-26T19:09:08.964Z,97251.44
2022-08-26T19:11:42.903Z,97253.54
2022-08-26T19:14:14.447Z,97255.91
2022-08-26T19:16:45.664Z,97256.73
2022-08-26T19:19:14.142Z,97258.88
2022-08-26T19:21:42.513Z,97256.64
2022-08-26T19:24:15.791Z,97260.12
2022-08-26T19:26:46.572Z,97260.38
2022-08-26T19:29:19.087Z,97259.48
2022-08-26T19:31:47.945Z,97262.11
2022-08-26T19:34:20.694Z,97259.14
2022-08-26T19:36:49.800Z,97256.50
2022-08-26T19:39:18.029Z,97255.55
2022-08-26T19:41:46.120Z,97258.41
2022-08-26T19:44:38.328Z,97258.46
2022-08-26T19:47:09.814Z,97260.32
2022-08-26T19:49:38.460Z,97258.48
2022-08-26T19:52:06.599Z,97261.21
2022-08-26T19:54:35.455Z,97266.11
2022-08-26T19:57:04.007Z,97267.77
2022-08-26T19:59:33.311Z,97267.20
2022-08-26T20:02:02.037Z,97266.89
2022-08-26T20:04:32.114Z,97267.80
2022-08-26T20:07:01.828Z,97266.85
2022-08-26T20:09:32.736Z,97267.09
2022-08-26T20:12:02.517Z,97264.75
2022-08-26T20:14:31.164Z,97264.48
2022-08-26T20:16:59.490Z,97266.90
2022-08-26T20:19:46.353Z,97266.23
2022-08-26T20:22:14.838Z,97266.56
2022-08-26T20:24:43.024Z,97267.25
2022-08-26T20:27:11.442Z,97266.98
2022-08-26T20:29:40.995Z,97267.35
2022-08-26T20:32:09.933Z,97272.80
2022-08-26T20:34:39.922Z,97274.98
2022-08-26T20:37:08.687Z,97273.70
2022-08-26T20:39:36.869Z,97274.88
2022-08-26T20:42:06.918Z,97272.77
2022-08-26T20:44:54.865Z,97272.91
2022-08-26T20:47:23.507Z,97273.06
2022-08-26T20:49:52.337Z,97275.27
2022-08-26T20:52:21.182Z,97277.91
2022-08-26T20:54:49.363Z,97280.02
2022-08-26T20:57:17.642Z,97279.92
2022-08-26T20:59:45.809Z,97281.19
2022-08-26T21:02:14.089Z,97282.58
2022-08-26T21:04:42.317Z,97280.36
2022-08-26T21:07:10.534Z,97284.15
2022-08-26T21:09:38.711Z,97284.75
2022-08-26T21:12:07.298Z,97284.71
2022-08-26T21:14:35.365Z,97287.04
2022-08-26T21:17:04.460Z,97288.10
2022-08-26T21:19:32.395Z,97286.96
2022-08-26T21:22:00.506Z,97287.96
2022-08-26T21:24:28.575Z,97288.96
2022-08-26T21:26:57.059Z,97290.00
2022-08-26T21:29:25.544Z,97292.08
2022-08-26T21:31:53.564Z,97289.13
2022-08-26T21:34:21.986Z,97290.11
2022-08-26T21:36:50.366Z,97287.00
2022-08-26T21:39:18.717Z,97287.27
2022-08-26T21:41:47.379Z,97287.81
2022-08-26T21:44:17.345Z,97286.84
2022-08-26T21:46:46.560Z,97286.27
2022-08-26T21:49:16.171Z,97286.09
2022-08-26T21:51:47.436Z,97283.55
2022-08-26T21:54:16.294Z,97286.82
2022-08-26T21:56:47.111Z,97288.59
2022-08-26T21:59:18.182Z,97289.41
2022-08-26T22:01:47.201Z,97287.65
2022-08-26T22:04:16.160Z,97287.38
2022-08-26T22:06:50.575Z,97288.07
2022-08-26T22:09:23.868Z,97289.35
2022-08-26T22:11:53.682Z,97288.79
2022-08-26T22:14:30.660Z,97290.16
2022-08-26T22:16:59.978Z,97292.64
2022-08-26T22:19:29.999Z,97291.52
2022-08-26T22:21:59.080Z,97290.77
2022-08-26T22:24:27.970Z,97298.29
2022-08-26T22:26:56.991Z,97298.09
2022-08-26T22:29:25.855Z,97297.11
2022-08-26T22:31:54.045Z,97296.19
2022-08-26T22:34:23.426Z,97294.05
2022-08-26T22:36:51.707Z,97295.98
2022-08-26T22:39:23.331Z,97293.58
2022-08-26T22:41:53.381Z,97290.67
2022-08-26T22:44:22.483Z,97290.00
2022-08-26T22:46:54.440Z,97293.36
2022-08-26T22:49:23.603Z,97293.02
2022-08-26T22:51:51.734Z,97286.46
2022-08-26T22:54:20.298Z,97287.39
2022-08-26T22:56:48.733Z,97288.86
2022-08-26T22:59:17.149Z,97288.83
2022-08-26T23:01:46.933Z,97290.73
2022-08-26T23:04:15.244Z,97289.18
2022-08-26T23:06:47.598Z,97288.40
2022-08-26T23:09:18.531Z,97287.05
2022-08-26T23:11:48.703Z,97284.06
2022-08-26T23:14:18.502Z,97287.10
2022-08-26T23:16:47.474Z,97285.44
2022-08-26T23:19:18.659Z,97286.29
2022-08-26T23:21:47.764Z,97284.85
2022-08-26T23:24:17.381Z,97283.98
2022-08-26T23:26:46.014Z,97283.87
2022-08-26T23:29:16.025Z,97282.27
2022-08-26T23:31:45.242Z,97280.41
2022-08-26T23:34:32.590Z,97279.51
2022-08-26T23:37:02.467Z,97281.96
2022-08-26T23:39:35.372Z,97279.86
2022-08-26T23:42:04.467Z,97283.35
2022-08-26T23:44:32.748Z,97284.86
2022-08-26T23:47:01.819Z,97280.59
2022-08-26T23:49:30.197Z,97276.89
2022-08-26T23:52:17.320Z,97278.04
2022-08-26T23:54:48.807Z,97277.88
2022-08-26T23:57:19.854Z,97274.89
2022-08-26T23:59:48.668Z,97274.11
